createdAt,value
2023-03-14T00:01:32.600Z,9.70
2023-03-14T00:04:00.346Z,9.60
2023-03-14T00:06:28.075Z,9.50
2023-03-14T00:08:55.866Z,9.50
2023-03-14T00:11:26.536Z,9.50
2023-03-14T00:13:54.432Z,9.60
2023-03-14T00:16:21.886Z,9.60
2023-03-14T00:18:49.120Z,9.50
2023-03-14T00:21:16.363Z,9.50
2023-03-14T00:23:44.385Z,9.50
2023-03-14T00:26:15.265Z,9.40
2023-03-14T00:28:43.780Z,9.40
2023-03-14T00:31:15.565Z,9.40
2023-03-14T00:33:44.405Z,9.30
2023-03-14T00:36:17.743Z,9.30
2023-03-14T00:38:47.818Z,9.40
2023-03-14T00:41:19.325Z,9.50
2023-03-14T00:43:46.843Z,9.50
2023-03-14T00:46:14.542Z,9.50
2023-03-14T00:48:42.130Z,9.40
2023-03-14T00:51:12.508Z,9.40
2023-03-14T00:53:40.926Z,9.50
2023-03-14T00:56:12.550Z,9.60
2023-03-14T00:58:40.035Z,9.70
2023-03-14T01:01:11.453Z,9.60
2023-03-14T01:03:38.557Z,9.60
2023-03-14T01:06:21.844Z,9.50
2023-03-14T01:08:49.464Z,9.70
2023-03-14T01:11:21.669Z,9.60
2023-03-14T01:13:49.392Z,9.60
2023-03-14T01:16:17.996Z,9.70
2023-03-14T01:18:46.899Z,9.70
2023-03-14T01:21:27.681Z,9.60
2023-03-14T01:24:07.577Z,9.70
2023-03-14T01:26:36.248Z,9.70
2023-03-14T01:29:05.110Z,9.70
2023-03-14T01:31:32.436Z,9.70
2023-03-14T01:33:59.775Z,9.90
2023-03-14T01:36:27.051Z,9.90
2023-03-14T01:38:54.146Z,9.90
2023-03-14T01:41:26.505Z,9.90
2023-03-14T01:43:54.095Z,9.80
2023-03-14T01:46:27.186Z,9.80
2023-03-14T01:49:12.521Z,9.60
2023-03-14T01:51:48.655Z,9.60
2023-03-14T01:54:35.696Z,9.60
2023-03-14T01:57:14.628Z,9.60
2023-03-14T01:59:49.949Z,9.70
2023-03-14T02:02:17.971Z,9.70
2023-03-14T02:04:46.273Z,9.90
2023-03-14T02:07:21.565Z,10.00
2023-03-14T02:09:50.237Z,10.00
2023-03-14T02:12:19.799Z,10.10
2023-03-14T02:14:49.292Z,10.10
2023-03-14T02:17:19.950Z,10.10
2023-03-14T02:20:17.352Z,10.00
2023-03-14T02:22:46.836Z,9.90
2023-03-14T02:25:32.123Z,10.00
2023-03-14T02:28:00.115Z,10.00
2023-03-14T02:30:31.716Z,9.90
2023-03-14T02:33:10.239Z,9.90
2023-03-14T02:36:08.779Z,9.90
2023-03-14T02:38:59.762Z,9.90
2023-03-14T02:41:26.807Z,9.80
2023-03-14T02:43:53.915Z,9.70
2023-03-14T02:46:23.467Z,9.90
2023-03-14T02:48:57.408Z,9.90
2023-03-14T02:51:27.140Z,9.80
2023-03-14T02:53:54.244Z,9.90
2023-03-14T02:56:21.460Z,9.90
2023-03-14T02:58:48.619Z,9.90
2023-03-14T03:01:15.805Z,9.90
2023-03-14T03:03:43.063Z,9.90
2023-03-14T03:06:10.288Z,9.90
2023-03-14T03:08:37.559Z,9.90
2023-03-14T03:11:05.078Z,9.90
2023-03-14T03:13:32.192Z,9.80
2023-03-14T03:15:59.300Z,9.70
2023-03-14T03:18:26.493Z,9.60
2023-03-14T03:20:53.683Z,9.50
2023-03-14T03:23:21.090Z,9.50
2023-03-14T03:25:52.520Z,9.50
2023-03-14T03:28:20.388Z,9.40
2023-03-14T03:30:47.525Z,9.50
2023-03-14T03:33:15.152Z,9.50
2023-03-14T03:35:48.928Z,9.40
2023-03-14T03:38:16.654Z,9.30
2023-03-14T03:40:44.115Z,9.30
2023-03-14T03:43:11.358Z,9.40
2023-03-14T03:45:38.452Z,9.30
2023-03-14T03:48:05.961Z,9.40
2023-03-14T03:50:33.100Z,9.40
2023-03-14T03:53:00.464Z,9.30
2023-03-14T03:55:29.175Z,9.40
2023-03-14T03:57:56.425Z,9.30
2023-03-14T04:00:23.767Z,9.20
2023-03-14T04:02:51.834Z,9.20
2023-03-14T04:05:19.134Z,9.20
2023-03-14T04:07:46.217Z,9.30
2023-03-14T04:10:13.338Z,9.30
2023-03-14T04:12:40.471Z,9.30
2023-03-14T04:15:08.872Z,9.30
2023-03-14T04:17:35.972Z,9.20
2023-03-14T04:20:03.668Z,9.30
2023-03-14T04:22:30.857Z,9.40
2023-03-14T04:24:58.082Z,9.40
2023-03-14T04:27:25.278Z,9.40
2023-03-14T04:29:52.300Z,9.50
2023-03-14T04:32:19.504Z,9.60
2023-03-14T04:34:46.941Z,9.60
2023-03-14T04:37:14.325Z,9.60
2023-03-14T04:39:41.395Z,9.60
2023-03-14T04:42:08.583Z,9.70
2023-03-14T04:44:35.604Z,9.60
2023-03-14T04:47:02.767Z,9.80
2023-03-14T04:49:29.916Z,9.70
2023-03-14T04:51:56.998Z,9.70
2023-03-14T04:54:24.102Z,9.70
2023-03-14T04:56:51.186Z,9.70
2023-03-14T04:59:18.223Z,9.70
2023-03-14T05:01:45.319Z,9.80
2023-03-14T05:04:12.454Z,9.80
2023-03-14T05:06:40.667Z,9.80
2023-03-14T05:09:07.758Z,9.80
2023-03-14T05:11:34.996Z,9.80
2023-03-14T05:14:02.143Z,9.80
2023-03-14T05:16:29.296Z,9.80
2023-03-14T05:18:56.441Z,9.80
2023-03-14T05:21:23.540Z,9.80
2023-03-14T05:23:50.648Z,9.60
2023-03-14T05:26:18.129Z,9.70
2023-03-14T05:28:45.297Z,9.70
2023-03-14T05:31:13.149Z,9.80
2023-03-14T05:33:41.068Z,9.80
2023-03-14T05:36:08.959Z,9.80
2023-03-14T05:38:36.161Z,9.80
2023-03-14T05:41:03.343Z,9.80
2023-03-14T05:43:30.472Z,9.80
2023-03-14T05:45:57.583Z,9.80
2023-03-14T05:48:24.884Z,9.80
2023-03-14T05:51:00.413Z,9.80
2023-03-14T05:53:28.006Z,9.80
2023-03-14T05:55:58.084Z,9.70
2023-03-14T05:58:25.449Z,9.80
2023-03-14T06:00:52.743Z,9.80
2023-03-14T06:03:19.923Z,9.80
2023-03-14T06:05:47.145Z,9.80
2023-03-14T06:08:16.255Z,9.80
2023-03-14T06:10:44.585Z,9.70
2023-03-14T06:13:11.637Z,9.80
2023-03-14T06:15:38.739Z,9.70
2023-03-14T06:18:05.842Z,9.80
2023-03-14T06:20:34.168Z,9.80
2023-03-14T06:23:01.248Z,9.80
2023-03-14T06:25:28.308Z,9.90
2023-03-14T06:27:55.398Z,9.90
2023-03-14T06:30:22.596Z,9.90
2023-03-14T06:32:52.629Z,9.90
2023-03-14T06:35:20.792Z,9.90
2023-03-14T06:37:50.473Z,9.90
2023-03-14T06:40:19.056Z,9.80
2023-03-14T06:42:46.617Z,9.90
2023-03-14T06:45:14.488Z,9.90
2023-03-14T06:47:41.810Z,9.80
2023-03-14T06:50:11.728Z,9.90
2023-03-14T06:52:42.307Z,9.80
2023-03-14T06:55:10.256Z,9.70
2023-03-14T06:57:37.451Z,9.70
2023-03-14T07:00:06.442Z,9.60
2023-03-14T07:02:42.768Z,9.60
2023-03-14T07:05:11.509Z,9.60
2023-03-14T07:07:38.762Z,9.40
2023-03-14T07:10:06.626Z,9.40
2023-03-14T07:12:34.755Z,9.50
2023-03-14T07:15:15.741Z,9.50
2023-03-14T07:17:45.729Z,9.40
2023-03-14T07:20:12.900Z,9.30
2023-03-14T07:22:40.050Z,9.20
2023-03-14T07:25:07.874Z,9.20
2023-03-14T07:27:34.917Z,9.20
2023-03-14T07:30:02.039Z,9.20
2023-03-14T07:32:30.132Z,9.40
2023-03-14T07:34:57.504Z,9.40
2023-03-14T07:37:24.718Z,9.50
2023-03-14T07:39:51.888Z,9.50
2023-03-14T07:42:20.047Z,9.60
2023-03-14T07:44:47.199Z,9.60
2023-03-14T07:47:14.300Z,9.70
2023-03-14T07:49:41.356Z,9.70
2023-03-14T07:52:10.811Z,9.80
2023-03-14T07:54:37.946Z,9.80
2023-03-14T07:57:05.088Z,10.00
2023-03-14T07:59:32.231Z,10.10
2023-03-14T08:02:00.111Z,10.10
2023-03-14T08:04:28.401Z,10.10
2023-03-14T08:06:55.590Z,10.00
2023-03-14T08:09:22.724Z,10.00
2023-03-14T08:11:52.051Z,10.00
2023-03-14T08:14:19.142Z,10.00
2023-03-14T08:16:46.486Z,10.00
2023-03-14T08:19:13.606Z,10.10
2023-03-14T08:21:41.759Z,10.10
2023-03-14T08:24:08.948Z,10.10
2023-03-14T08:26:36.047Z,10.10
2023-03-14T08:29:05.537Z,10.10
2023-03-14T08:31:32.863Z,10.10
2023-03-14T08:34:00.750Z,10.10
2023-03-14T08:36:27.940Z,10.10
2023-03-14T08:38:55.420Z,10.10
2023-03-14T08:41:22.802Z,10.20
2023-03-14T08:43:49.887Z,10.40
2023-03-14T08:46:17.224Z,10.50
2023-03-14T08:48:44.378Z,10.60
2023-03-14T08:51:14.995Z,10.70
2023-03-14T08:53:43.116Z,10.70
2023-03-14T08:56:12.093Z,10.60
2023-03-14T08:58:39.369Z,10.50
2023-03-14T09:01:07.736Z,10.60
2023-03-14T09:03:34.930Z,10.50
2023-03-14T09:06:08.400Z,10.70
2023-03-14T09:08:38.103Z,10.70
2023-03-14T09:11:10.057Z,10.90
2023-03-14T09:13:37.734Z,11.00
2023-03-14T09:16:06.052Z,11.10
2023-03-14T09:18:33.557Z,11.20
2023-03-14T09:21:01.752Z,11.10
2023-03-14T09:23:30.578Z,11.00
2023-03-14T09:25:59.019Z,11.00
2023-03-14T09:28:26.550Z,11.10
2023-03-14T09:30:55.583Z,11.10
2023-03-14T09:33:23.026Z,11.20
2023-03-14T09:35:50.308Z,11.10
2023-03-14T09:38:17.552Z,11.20
2023-03-14T09:40:44.693Z,11.20
2023-03-14T09:43:16.101Z,11.10
2023-03-14T09:45:47.504Z,11.10
2023-03-14T09:48:34.517Z,11.00
2023-03-14T09:51:12.906Z,10.90
2023-03-14T09:53:44.416Z,10.90
2023-03-14T09:56:29.473Z,10.90
2023-03-14T09:59:01.289Z,10.90
2023-03-14T10:01:32.946Z,11.00
2023-03-14T10:04:14.580Z,10.90
2023-03-14T10:06:41.759Z,10.80
2023-03-14T10:09:18.923Z,10.80
2023-03-14T10:11:46.207Z,10.80
2023-03-14T10:14:14.436Z,10.90
2023-03-14T10:16:47.126Z,10.80
2023-03-14T10:19:17.030Z,10.80
2023-03-14T10:21:52.431Z,10.80
2023-03-14T10:24:36.157Z,10.70
2023-03-14T10:27:07.070Z,10.70
2023-03-14T10:29:35.760Z,10.70
2023-03-14T10:32:11.456Z,10.80
2023-03-14T10:34:39.932Z,10.70
2023-03-14T10:37:23.535Z,10.60
2023-03-14T10:39:53.744Z,10.50
2023-03-14T10:42:35.805Z,10.30
2023-03-14T10:45:08.715Z,10.20
2023-03-14T10:47:35.852Z,10.10
2023-03-14T10:50:38.631Z,10.00
2023-03-14T10:53:08.686Z,9.90
2023-03-14T10:55:46.293Z,9.90
2023-03-14T10:58:44.690Z,9.80
2023-03-14T11:01:56.269Z,9.90
2023-03-14T11:04:44.859Z,9.90
2023-03-14T11:07:37.741Z,9.90
2023-03-14T11:10:34.053Z,9.80
2023-03-14T11:13:26.976Z,9.80
2023-03-14T11:16:20.352Z,9.60
2023-03-14T11:19:29.048Z,9.40
2023-03-14T11:22:29.650Z,9.30
2023-03-14T11:25:14.023Z,9.30
2023-03-14T11:27:48.306Z,9.30
2023-03-14T11:30:28.818Z,9.20
2023-03-14T11:33:29.812Z,9.20
2023-03-14T11:36:21.636Z,9.20
2023-03-14T11:38:58.043Z,9.10
2023-03-14T11:41:30.794Z,9.10
2023-03-14T11:44:01.127Z,9.10
2023-03-14T11:47:21.872Z,9.10
2023-03-14T11:50:18.490Z,9.20
2023-03-14T11:53:06.443Z,9.20
2023-03-14T11:55:40.391Z,9.10
2023-03-14T11:58:30.450Z,9.10
2023-03-14T12:00:59.212Z,9.10
2023-03-14T12:03:45.571Z,9.10
2023-03-14T12:06:51.204Z,9.10
2023-03-14T12:09:23.468Z,9.00
2023-03-14T12:12:01.692Z,8.90
2023-03-14T12:14:37.890Z,9.00
2023-03-14T12:17:22.737Z,9.00
2023-03-14T12:20:13.729Z,9.00
2023-03-14T12:22:51.323Z,9.00
2023-03-14T12:25:31.140Z,8.90
2023-03-14T12:28:25.983Z,8.80
2023-03-14T12:30:54.230Z,8.80
2023-03-14T12:33:32.050Z,8.70
2023-03-14T12:36:03.069Z,8.60
2023-03-14T12:39:18.629Z,8.60
2023-03-14T12:41:54.843Z,8.50
2023-03-14T12:44:31.315Z,8.40
2023-03-14T12:46:59.799Z,8.40
2023-03-14T12:49:39.060Z,8.40
2023-03-14T12:52:40.325Z,8.40
2023-03-14T12:55:30.365Z,8.40
2023-03-14T12:58:00.232Z,8.40
2023-03-14T13:00:42.169Z,8.40
2023-03-14T13:03:28.434Z,8.50
2023-03-14T13:06:02.991Z,8.60
2023-03-14T13:08:40.609Z,8.60
2023-03-14T13:11:18.367Z,8.60
2023-03-14T13:13:59.302Z,8.70
2023-03-14T13:16:27.072Z,8.70
2023-03-14T13:19:28.028Z,8.70
2023-03-14T13:22:12.547Z,8.70
2023-03-14T13:24:39.904Z,8.70
2023-03-14T13:27:21.832Z,8.50
2023-03-14T13:29:52.738Z,8.50
2023-03-14T13:32:28.910Z,8.30
2023-03-14T13:34:59.804Z,8.30
2023-03-14T13:37:28.132Z,8.40
2023-03-14T13:39:58.284Z,8.60
2023-03-14T13:42:30.822Z,8.60
2023-03-14T13:44:58.704Z,8.60
2023-03-14T13:47:27.580Z,8.50
2023-03-14T13:49:55.415Z,8.50
2023-03-14T13:52:32.130Z,8.40
2023-03-14T13:55:01.779Z,8.40
2023-03-14T13:57:28.905Z,8.20
2023-03-14T14:00:11.142Z,7.80
2023-03-14T14:02:40.226Z,7.40
2023-03-14T14:05:07.948Z,7.20
2023-03-14T14:07:35.314Z,7.00
2023-03-14T14:10:02.718Z,6.80
2023-03-14T14:12:54.177Z,6.80
2023-03-14T14:15:27.318Z,6.70
2023-03-14T14:18:07.446Z,6.80
2023-03-14T14:20:40.273Z,7.10
2023-03-14T14:23:30.080Z,7.20
2023-03-14T14:25:58.945Z,7.30
2023-03-14T14:28:39.397Z,7.60
2023-03-14T14:31:22.339Z,8.00
2023-03-14T14:33:58.256Z,8.40
2023-03-14T14:36:32.896Z,8.40
2023-03-14T14:39:22.874Z,8.30
2023-03-14T14:41:52.236Z,8.10
2023-03-14T14:44:35.432Z,8.00
2023-03-14T14:47:05.230Z,8.10
2023-03-14T14:49:34.840Z,8.20
2023-03-14T14:52:18.680Z,8.20
2023-03-14T14:54:52.122Z,8.20
2023-03-14T14:57:37.234Z,8.30
2023-03-14T15:00:14.367Z,8.30
2023-03-14T15:02:47.557Z,8.40
2023-03-14T15:05:20.967Z,8.30
2023-03-14T15:07:48.578Z,8.20
2023-03-14T15:10:22.289Z,8.20
2023-03-14T15:12:52.112Z,8.10
2023-03-14T15:15:20.201Z,8.10
2023-03-14T15:17:47.345Z,8.10
2023-03-14T15:20:19.118Z,8.20
2023-03-14T15:22:47.443Z,8.60
2023-03-14T15:25:37.054Z,8.70
2023-03-14T15:28:01.944Z,8.60
2023-03-14T15:30:29.065Z,8.50
2023-03-14T15:32:56.170Z,8.40
2023-03-14T15:35:23.315Z,8.30
2023-03-14T15:37:50.443Z,8.20
2023-03-14T15:40:19.637Z,8.20
2023-03-14T15:42:47.415Z,8.10
2023-03-14T15:45:14.613Z,8.10
2023-03-14T15:47:42.711Z,8.00
2023-03-14T15:50:11.650Z,8.00
2023-03-14T15:52:39.202Z,8.10
2023-03-14T15:55:06.866Z,8.10
2023-03-14T15:57:35.163Z,8.20
2023-03-14T16:00:02.622Z,8.30
2023-03-14T16:02:30.004Z,8.40
2023-03-14T16:04:59.051Z,8.80
2023-03-14T16:07:27.627Z,9.20
2023-03-14T16:09:54.681Z,9.40
2023-03-14T16:12:21.838Z,9.40
2023-03-14T16:14:49.376Z,9.40
2023-03-14T16:17:16.471Z,9.40
2023-03-14T16:19:43.740Z,9.30
2023-03-14T16:22:11.120Z,9.30
2023-03-14T16:24:38.195Z,9.10
2023-03-14T16:27:06.705Z,9.00
2023-03-14T16:29:35.336Z,9.00
2023-03-14T16:32:02.452Z,9.00
2023-03-14T16:34:29.620Z,8.90
2023-03-14T16:36:56.678Z,8.80
2023-03-14T16:39:23.911Z,8.80
2023-03-14T16:41:51.065Z,8.70
2023-03-14T16:44:18.149Z,8.70
2023-03-14T16:46:45.351Z,8.60
2023-03-14T16:49:12.523Z,8.50
2023-03-14T16:51:40.643Z,8.40
2023-03-14T16:54:08.013Z,8.30
2023-03-14T16:56:35.451Z,8.20
2023-03-14T16:59:02.786Z,8.10
2023-03-14T17:01:30.245Z,8.00
2023-03-14T17:03:57.411Z,7.90
2023-03-14T17:06:28.229Z,7.90
2023-03-14T17:08:57.504Z,7.90
2023-03-14T17:11:25.489Z,7.90
2023-03-14T17:13:52.587Z,7.90
2023-03-14T17:16:21.333Z,7.80
2023-03-14T17:18:49.348Z,7.80
2023-03-14T17:21:16.693Z,7.80
2023-03-14T17:23:43.886Z,7.60
2023-03-14T17:26:12.972Z,7.50
2023-03-14T17:28:40.140Z,7.50
2023-03-14T17:31:14.063Z,7.60
2023-03-14T17:33:41.242Z,7.60
2023-03-14T17:36:09.460Z,7.50
2023-03-14T17:38:37.162Z,7.50
2023-03-14T17:41:13.359Z,7.40
2023-03-14T17:43:41.274Z,7.40
2023-03-14T17:46:14.739Z,7.40
2023-03-14T17:48:44.833Z,7.30
2023-03-14T17:51:14.995Z,7.30
2023-03-14T17:53:42.281Z,7.30
2023-03-14T17:56:10.245Z,7.30
2023-03-14T17:58:38.029Z,7.20
2023-03-14T18:01:19.249Z,7.10
2023-03-14T18:03:46.671Z,7.00
2023-03-14T18:06:17.601Z,6.90
2023-03-14T18:08:46.716Z,6.70
2023-03-14T18:11:14.240Z,6.70
2023-03-14T18:13:41.971Z,6.60
2023-03-14T18:16:17.233Z,6.50
2023-03-14T18:18:48.640Z,6.50
2023-03-14T18:21:18.461Z,6.50
2023-03-14T18:23:45.707Z,6.40
2023-03-14T18:26:12.876Z,6.30
2023-03-14T18:28:40.161Z,6.30
2023-03-14T18:31:11.118Z,6.20
2023-03-14T18:33:41.672Z,6.20
2023-03-14T18:36:10.202Z,6.10
2023-03-14T18:38:43.532Z,6.00
2023-03-14T18:41:15.407Z,6.00
2023-03-14T18:43:43.591Z,5.90
2023-03-14T18:46:19.343Z,5.80
2023-03-14T18:48:47.252Z,5.80
2023-03-14T18:51:16.441Z,5.70
2023-03-14T18:53:45.685Z,5.70
2023-03-14T18:56:15.530Z,5.60
2023-03-14T18:58:42.963Z,5.50
2023-03-14T19:01:12.510Z,5.50
2023-03-14T19:03:40.660Z,5.50
2023-03-14T19:06:09.173Z,5.40
2023-03-14T19:08:40.799Z,5.40
2023-03-14T19:11:11.108Z,5.30
2023-03-14T19:13:40.296Z,5.20
2023-03-14T19:16:10.409Z,5.20
2023-03-14T19:18:37.740Z,5.20
2023-03-14T19:21:12.450Z,5.10
2023-03-14T19:23:42.918Z,5.00
2023-03-14T19:26:10.077Z,5.00
2023-03-14T19:28:37.487Z,4.90
2023-03-14T19:31:06.475Z,4.80
2023-03-14T19:33:33.765Z,4.80
2023-03-14T19:36:02.634Z,4.80
2023-03-14T19:38:29.955Z,4.80
2023-03-14T19:40:58.921Z,4.80
2023-03-14T19:43:27.574Z,4.70
2023-03-14T19:45:55.812Z,4.60
2023-03-14T19:48:30.212Z,4.50
2023-03-14T19:51:01.512Z,4.40
2023-03-14T19:53:29.401Z,4.30
2023-03-14T19:55:56.479Z,4.10
2023-03-14T19:58:24.676Z,4.10
2023-03-14T20:00:51.922Z,4.00
2023-03-14T20:03:19.139Z,3.90
2023-03-14T20:05:48.590Z,3.80
2023-03-14T20:08:16.601Z,3.80
2023-03-14T20:10:46.045Z,3.80
2023-03-14T20:13:21.415Z,3.90
2023-03-14T20:15:50.571Z,3.90
2023-03-14T20:18:17.690Z,3.90
2023-03-14T20:20:44.786Z,3.90
2023-03-14T20:23:14.554Z,3.90
2023-03-14T20:25:42.543Z,3.80
2023-03-14T20:28:09.872Z,3.80
2023-03-14T20:30:37.081Z,3.70
2023-03-14T20:33:04.582Z,3.70
2023-03-14T20:35:31.931Z,3.60
2023-03-14T20:37:59.252Z,3.40
2023-03-14T20:40:29.026Z,3.20
2023-03-14T20:42:56.661Z,3.00
2023-03-14T20:45:23.817Z,2.70
2023-03-14T20:47:51.069Z,2.30
2023-03-14T20:50:18.638Z,2.00
2023-03-14T20:52:46.049Z,1.80
2023-03-14T20:55:13.199Z,1.70
2023-03-14T20:57:41.182Z,1.70
2023-03-14T21:00:09.416Z,1.70
2023-03-14T21:02:36.569Z,1.60
2023-03-14T21:05:05.122Z,1.70
2023-03-14T21:07:34.528Z,1.60
2023-03-14T21:10:01.715Z,1.70
2023-03-14T21:12:28.903Z,1.60
2023-03-14T21:14:56.143Z,1.60
2023-03-14T21:17:23.343Z,1.70
2023-03-14T21:19:58.881Z,1.70
2023-03-14T21:22:28.085Z,1.70
2023-03-14T21:24:56.280Z,1.70
2023-03-14T21:27:24.134Z,1.70
2023-03-14T21:29:52.678Z,1.70
2023-03-14T21:32:20.684Z,1.80
2023-03-14T21:34:51.454Z,1.70
2023-03-14T21:37:19.419Z,1.70
2023-03-14T21:39:46.511Z,1.70
2023-03-14T21:42:14.698Z,1.70
2023-03-14T21:44:46.523Z,1.70
2023-03-14T21:47:13.826Z,1.70
2023-03-14T21:49:41.334Z,1.70
2023-03-14T21:52:12.708Z,1.60
2023-03-14T21:54:42.978Z,1.50
2023-03-14T21:57:11.639Z,1.40
2023-03-14T21:59:39.206Z,1.30
2023-03-14T22:02:12.528Z,1.40
2023-03-14T22:04:40.177Z,1.40
2023-03-14T22:07:18.838Z,1.30
2023-03-14T22:09:48.383Z,1.30
2023-03-14T22:12:19.455Z,1.30
2023-03-14T22:14:48.356Z,1.40
2023-03-14T22:17:15.972Z,1.40
2023-03-14T22:19:43.226Z,1.40
2023-03-14T22:22:10.609Z,1.50
2023-03-14T22:24:37.732Z,1.50
2023-03-14T22:27:05.059Z,1.50
2023-03-14T22:29:32.250Z,1.60
2023-03-14T22:31:59.668Z,1.60
2023-03-14T22:34:31.704Z,1.60
2023-03-14T22:37:04.506Z,1.60
2023-03-14T22:39:33.081Z,1.60
2023-03-14T22:42:01.696Z,1.60
2023-03-14T22:44:32.970Z,1.60
2023-03-14T22:47:01.202Z,1.60
2023-03-14T22:49:32.212Z,1.60
2023-03-14T22:51:59.410Z,1.60
2023-03-14T22:54:26.619Z,1.60
2023-03-14T22:56:53.833Z,1.60
2023-03-14T22:59:21.008Z,1.60
2023-03-14T23:01:48.153Z,1.60
2023-03-14T23:04:15.436Z,1.60
2023-03-14T23:06:42.670Z,1.60
2023-03-14T23:09:12.047Z,1.60
2023-03-14T23:11:40.197Z,1.60
2023-03-14T23:14:07.453Z,1.60
2023-03-14T23:16:40.685Z,1.60
2023-03-14T23:19:09.994Z,1.60
2023-03-14T23:21:37.436Z,1.70
2023-03-14T23:24:06.200Z,1.60
2023-03-14T23:26:35.914Z,1.60
2023-03-14T23:29:07.340Z,1.60
2023-03-14T23:31:34.968Z,1.60
2023-03-14T23:34:02.476Z,1.60
2023-03-14T23:36:29.925Z,1.60
2023-03-14T23:38:57.167Z,1.60
2023-03-14T23:41:24.297Z,1.50
2023-03-14T23:43:51.404Z,1.50
2023-03-14T23:46:18.653Z,1.40
2023-03-14T23:48:48.971Z,1.30
2023-03-14T23:51:16.698Z,1.20
2023-03-14T23:53:44.735Z,1.10
2023-03-14T23:56:13.610Z,1.10
2023-03-14T23:58:41.787Z,1.00
